sensor_id;sensor_type;location;lat;lon;timestamp;temperature;humidity
46652;DHT22;32377;52.182;5.398;2023-03-23T00:02:28;11.60;99.90
46652;DHT22;32377;52.182;5.398;2023-03-23T00:04:55;11.60;99.90
46652;DHT22;32377;52.182;5.398;2023-03-23T00:07:23;11.70;99.90
46652;DHT22;32377;52.182;5.398;2023-03-23T00:09:53;11.60;99.90
46652;DHT22;32377;52.182;5.398;2023-03-23T00:12:24;11.60;99.90
46652;DHT22;32377;52.182;5.398;2023-03-23T00:14:55;11.60;99.90
46652;DHT22;32377;52.182;5.398;2023-03-23T00:17:20;11.60;99.90
46652;DHT22;32377;52.182;5.398;2023-03-23T00:19:46;11.60;99.90
46652;DHT22;32377;52.182;5.398;2023-03-23T00:22:13;11.60;99.90
46652;DHT22;32377;52.182;5.398;2023-03-23T00:24:39;11.60;99.90
46652;DHT22;32377;52.182;5.398;2023-03-23T00:27:05;11.70;99.90
46652;DHT22;32377;52.182;5.398;2023-03-23T00:29:30;11.60;99.90
46652;DHT22;32377;52.182;5.398;2023-03-23T00:31:57;11.60;99.90
46652;DHT22;32377;52.182;5.398;2023-03-23T00:34:23;11.60;99.90
46652;DHT22;32377;52.182;5.398;2023-03-23T00:36:52;11.60;99.90
46652;DHT22;32377;52.182;5.398;2023-03-23T00:39:18;11.60;99.90
46652;DHT22;32377;52.182;5.398;2023-03-23T00:41:45;11.60;99.90
46652;DHT22;32377;52.182;5.398;2023-03-23T00:44:11;11.60;99.90
46652;DHT22;32377;52.182;5.398;2023-03-23T00:46:43;11.60;99.90
46652;DHT22;32377;52.182;5.398;2023-03-23T00:49:15;11.70;99.90
46652;DHT22;32377;52.182;5.398;2023-03-23T00:51:41;11.70;99.90
46652;DHT22;32377;52.182;5.398;2023-03-23T00:54:07;11.70;99.90
46652;DHT22;32377;52.182;5.398;2023-03-23T00:56:33;11.70;99.90
46652;DHT22;32377;52.182;5.398;2023-03-23T00:58:59;11.70;99.90
46652;DHT22;32377;52.182;5.398;2023-03-23T01:01:25;11.80;99.90
46652;DHT22;32377;52.182;5.398;2023-03-23T01:03:50;11.80;99.90
46652;DHT22;32377;52.182;5.398;2023-03-23T01:06:18;11.80;99.90
46652;DHT22;32377;52.182;5.398;2023-03-23T01:08:44;11.80;99.90
46652;DHT22;32377;52.182;5.398;2023-03-23T01:11:16;11.80;99.90
46652;DHT22;32377;52.182;5.398;2023-03-23T01:13:42;11.80;99.90
46652;DHT22;32377;52.182;5.398;2023-03-23T01:16:09;11.80;99.90
46652;DHT22;32377;52.182;5.398;2023-03-23T01:18:35;11.80;99.90
46652;DHT22;32377;52.182;5.398;2023-03-23T01:21:06;11.80;99.90
46652;DHT22;32377;52.182;5.398;2023-03-23T01:23:33;11.90;99.90
46652;DHT22;32377;52.182;5.398;2023-03-23T01:26:25;11.90;99.90
46652;DHT22;32377;52.182;5.398;2023-03-23T01:28:49;11.90;99.90
46652;DHT22;32377;52.182;5.398;2023-03-23T01:31:17;11.90;99.90
46652;DHT22;32377;52.182;5.398;2023-03-23T01:33:43;11.90;99.90
46652;DHT22;32377;52.182;5.398;2023-03-23T01:36:17;11.90;99.90
46652;DHT22;32377;52.182;5.398;2023-03-23T01:38:45;11.80;99.90
46652;DHT22;32377;52.182;5.398;2023-03-23T01:41:12;11.90;99.90
46652;DHT22;32377;52.182;5.398;2023-03-23T01:44:01;11.90;99.90
46652;DHT22;32377;52.182;5.398;2023-03-23T01:46:29;11.90;99.90
46652;DHT22;32377;52.182;5.398;2023-03-23T01:48:57;11.90;99.90
46652;DHT22;32377;52.182;5.398;2023-03-23T01:51:26;11.90;99.90
46652;DHT22;32377;52.182;5.398;2023-03-23T01:53:58;12.00;99.90
46652;DHT22;32377;52.182;5.398;2023-03-23T01:56:28;12.00;99.90
46652;DHT22;32377;52.182;5.398;2023-03-23T01:58:55;11.90;99.90
46652;DHT22;32377;52.182;5.398;2023-03-23T02:01:21;11.90;99.90
46652;DHT22;32377;52.182;5.398;2023-03-23T02:03:52;11.90;99.90
46652;DHT22;32377;52.182;5.398;2023-03-23T02:06:18;11.90;99.90
46652;DHT22;32377;52.182;5.398;2023-03-23T02:08:44;11.90;99.90
46652;DHT22;32377;52.182;5.398;2023-03-23T02:11:15;11.90;99.90
46652;DHT22;32377;52.182;5.398;2023-03-23T02:13:41;12.00;99.90
46652;DHT22;32377;52.182;5.398;2023-03-23T02:16:19;12.00;99.90
46652;DHT22;32377;52.182;5.398;2023-03-23T02:21:46;12.00;99.90
46652;DHT22;32377;52.182;5.398;2023-03-23T02:33:06;12.00;99.90
46652;DHT22;32377;52.182;5.398;2023-03-23T02:35:18;12.00;99.90
46652;DHT22;32377;52.182;5.398;2023-03-23T02:40:30;12.00;99.90
46652;DHT22;32377;52.182;5.398;2023-03-23T02:42:58;12.00;99.90
46652;DHT22;32377;52.182;5.398;2023-03-23T02:45:28;12.00;99.90
46652;DHT22;32377;52.182;5.398;2023-03-23T02:47:56;12.00;99.90
46652;DHT22;32377;52.182;5.398;2023-03-23T02:50:24;12.10;99.90
46652;DHT22;32377;52.182;5.398;2023-03-23T02:52:52;12.10;99.90
46652;DHT22;32377;52.182;5.398;2023-03-23T02:55:21;12.10;99.90
46652;DHT22;32377;52.182;5.398;2023-03-23T02:57:51;12.10;99.90
46652;DHT22;32377;52.182;5.398;2023-03-23T03:00:17;12.10;99.90
46652;DHT22;32377;52.182;5.398;2023-03-23T03:02:46;12.10;99.90
46652;DHT22;32377;52.182;5.398;2023-03-23T03:05:40;12.10;99.90
46652;DHT22;32377;52.182;5.398;2023-03-23T03:11:00;12.10;99.90
46652;DHT22;32377;52.182;5.398;2023-03-23T03:13:47;12.00;99.90
46652;DHT22;32377;52.182;5.398;2023-03-23T03:21:30;12.00;99.90
46652;DHT22;32377;52.182;5.398;2023-03-23T03:23:58;12.00;99.90
46652;DHT22;32377;52.182;5.398;2023-03-23T03:26:26;12.00;99.90
46652;DHT22;32377;52.182;5.398;2023-03-23T03:28:53;12.10;99.90
46652;DHT22;32377;52.182;5.398;2023-03-23T03:31:22;12.20;99.90
46652;DHT22;32377;52.182;5.398;2023-03-23T03:33:49;12.20;99.90
46652;DHT22;32377;52.182;5.398;2023-03-23T03:36:19;12.20;99.90
46652;DHT22;32377;52.182;5.398;2023-03-23T03:38:48;12.20;99.90
46652;DHT22;32377;52.182;5.398;2023-03-23T03:41:15;12.20;99.90
46652;DHT22;32377;52.182;5.398;2023-03-23T03:43:41;12.20;99.90
46652;DHT22;32377;52.182;5.398;2023-03-23T03:46:07;12.20;99.90
46652;DHT22;32377;52.182;5.398;2023-03-23T03:48:33;12.20;99.90
46652;DHT22;32377;52.182;5.398;2023-03-23T03:50:59;12.30;99.90
46652;DHT22;32377;52.182;5.398;2023-03-23T03:53:26;12.20;99.90
46652;DHT22;32377;52.182;5.398;2023-03-23T03:55:52;12.30;99.90
46652;DHT22;32377;52.182;5.398;2023-03-23T03:58:21;12.30;99.90
46652;DHT22;32377;52.182;5.398;2023-03-23T04:00:48;12.30;99.90
46652;DHT22;32377;52.182;5.398;2023-03-23T04:03:14;12.30;99.90
46652;DHT22;32377;52.182;5.398;2023-03-23T04:05:40;12.30;99.90
46652;DHT22;32377;52.182;5.398;2023-03-23T04:08:07;12.40;99.90
46652;DHT22;32377;52.182;5.398;2023-03-23T04:10:32;12.40;99.90
46652;DHT22;32377;52.182;5.398;2023-03-23T04:12:59;12.40;99.90
46652;DHT22;32377;52.182;5.398;2023-03-23T04:15:25;12.40;99.90
46652;DHT22;32377;52.182;5.398;2023-03-23T04:17:51;12.30;99.90
46652;DHT22;32377;52.182;5.398;2023-03-23T04:20:17;12.40;99.90
46652;DHT22;32377;52.182;5.398;2023-03-23T04:22:47;12.40;99.90
46652;DHT22;32377;52.182;5.398;2023-03-23T04:25:16;12.30;99.90
46652;DHT22;32377;52.182;5.398;2023-03-23T04:27:42;12.40;99.90
46652;DHT22;32377;52.182;5.398;2023-03-23T04:30:12;12.40;99.90
46652;DHT22;32377;52.182;5.398;2023-03-23T04:32:39;12.40;99.90
46652;DHT22;32377;52.182;5.398;2023-03-23T04:35:11;12.40;99.90
46652;DHT22;32377;52.182;5.398;2023-03-23T04:37:38;12.40;99.90
46652;DHT22;32377;52.182;5.398;2023-03-23T04:40:04;12.40;99.90
46652;DHT22;32377;52.182;5.398;2023-03-23T04:42:34;12.40;99.90
46652;DHT22;32377;52.182;5.398;2023-03-23T04:44:59;12.40;99.90
46652;DHT22;32377;52.182;5.398;2023-03-23T04:47:26;12.40;99.90
46652;DHT22;32377;52.182;5.398;2023-03-23T04:49:56;12.40;99.90
46652;DHT22;32377;52.182;5.398;2023-03-23T04:52:27;12.40;99.90
46652;DHT22;32377;52.182;5.398;2023-03-23T04:54:54;12.40;99.90
46652;DHT22;32377;52.182;5.398;2023-03-23T04:59:11;12.40;99.90
46652;DHT22;32377;52.182;5.398;2023-03-23T05:01:39;12.40;99.90
46652;DHT22;32377;52.182;5.398;2023-03-23T05:04:05;12.40;99.90
46652;DHT22;32377;52.182;5.398;2023-03-23T05:06:31;12.40;99.90
46652;DHT22;32377;52.182;5.398;2023-03-23T05:08:56;12.40;99.90
46652;DHT22;32377;52.182;5.398;2023-03-23T05:11:22;12.40;99.90
46652;DHT22;32377;52.182;5.398;2023-03-23T05:13:48;12.30;99.90
46652;DHT22;32377;52.182;5.398;2023-03-23T05:16:14;12.30;99.90
46652;DHT22;32377;52.182;5.398;2023-03-23T05:18:40;12.20;99.90
46652;DHT22;32377;52.182;5.398;2023-03-23T05:21:05;12.10;99.90
46652;DHT22;32377;52.182;5.398;2023-03-23T05:23:31;12.10;99.90
46652;DHT22;32377;52.182;5.398;2023-03-23T05:25:59;12.00;99.90
46652;DHT22;32377;52.182;5.398;2023-03-23T05:28:28;11.90;99.90
46652;DHT22;32377;52.182;5.398;2023-03-23T05:30:56;11.80;99.90
46652;DHT22;32377;52.182;5.398;2023-03-23T05:33:22;11.70;99.90
46652;DHT22;32377;52.182;5.398;2023-03-23T05:35:48;11.60;99.90
46652;DHT22;32377;52.182;5.398;2023-03-23T05:38:15;11.40;99.90
46652;DHT22;32377;52.182;5.398;2023-03-23T05:40:42;11.30;99.90
46652;DHT22;32377;52.182;5.398;2023-03-23T05:43:08;11.00;99.90
46652;DHT22;32377;52.182;5.398;2023-03-23T05:45:34;10.90;99.90
46652;DHT22;32377;52.182;5.398;2023-03-23T05:48:00;10.90;99.90
46652;DHT22;32377;52.182;5.398;2023-03-23T05:50:26;10.80;99.90
46652;DHT22;32377;52.182;5.398;2023-03-23T05:52:54;10.80;99.90
46652;DHT22;32377;52.182;5.398;2023-03-23T05:55:20;10.80;99.90
46652;DHT22;32377;52.182;5.398;2023-03-23T05:57:45;10.90;99.90
46652;DHT22;32377;52.182;5.398;2023-03-23T06:00:12;10.90;99.90
46652;DHT22;32377;52.182;5.398;2023-03-23T06:02:46;10.90;99.90
46652;DHT22;32377;52.182;5.398;2023-03-23T06:05:13;10.90;99.90
46652;DHT22;32377;52.182;5.398;2023-03-23T06:07:39;10.90;99.90
46652;DHT22;32377;52.182;5.398;2023-03-23T06:10:06;10.90;99.90
46652;DHT22;32377;52.182;5.398;2023-03-23T06:12:33;10.90;99.90
46652;DHT22;32377;52.182;5.398;2023-03-23T06:14:58;10.90;99.90
46652;DHT22;32377;52.182;5.398;2023-03-23T06:17:24;10.90;99.90
46652;DHT22;32377;52.182;5.398;2023-03-23T06:19:50;10.90;99.90
46652;DHT22;32377;52.182;5.398;2023-03-23T06:22:17;10.90;99.90
46652;DHT22;32377;52.182;5.398;2023-03-23T06:24:43;10.80;99.90
46652;DHT22;32377;52.182;5.398;2023-03-23T06:27:09;10.80;99.90
46652;DHT22;32377;52.182;5.398;2023-03-23T06:29:36;10.80;99.90
46652;DHT22;32377;52.182;5.398;2023-03-23T06:32:04;10.80;99.90
46652;DHT22;32377;52.182;5.398;2023-03-23T06:34:30;10.80;99.90
46652;DHT22;32377;52.182;5.398;2023-03-23T06:36:57;10.80;99.90
46652;DHT22;32377;52.182;5.398;2023-03-23T06:39:23;10.80;99.90
46652;DHT22;32377;52.182;5.398;2023-03-23T06:41:50;10.80;99.90
46652;DHT22;32377;52.182;5.398;2023-03-23T06:44:16;10.70;99.90
46652;DHT22;32377;52.182;5.398;2023-03-23T06:46:42;10.70;99.90
46652;DHT22;32377;52.182;5.398;2023-03-23T06:49:08;10.70;99.90
46652;DHT22;32377;52.182;5.398;2023-03-23T06:51:34;10.80;99.90
46652;DHT22;32377;52.182;5.398;2023-03-23T06:54:00;10.70;99.90
46652;DHT22;32377;52.182;5.398;2023-03-23T06:56:26;10.80;99.90
46652;DHT22;32377;52.182;5.398;2023-03-23T06:58:52;10.80;99.90
46652;DHT22;32377;52.182;5.398;2023-03-23T07:01:18;10.80;99.90
46652;DHT22;32377;52.182;5.398;2023-03-23T07:03:43;10.90;99.90
46652;DHT22;32377;52.182;5.398;2023-03-23T07:06:10;10.90;99.90
46652;DHT22;32377;52.182;5.398;2023-03-23T07:08:36;10.90;99.90
46652;DHT22;32377;52.182;5.398;2023-03-23T07:11:03;10.90;99.90
46652;DHT22;32377;52.182;5.398;2023-03-23T07:13:29;10.90;99.90
46652;DHT22;32377;52.182;5.398;2023-03-23T07:15:55;11.00;99.90
46652;DHT22;32377;52.182;5.398;2023-03-23T07:18:21;11.00;99.90
46652;DHT22;32377;52.182;5.398;2023-03-23T07:20:48;11.00;99.90
46652;DHT22;32377;52.182;5.398;2023-03-23T07:23:14;11.10;99.90
46652;DHT22;32377;52.182;5.398;2023-03-23T07:25:40;11.10;99.90
46652;DHT22;32377;52.182;5.398;2023-03-23T07:28:06;11.20;99.90
46652;DHT22;32377;52.182;5.398;2023-03-23T07:30:33;11.20;99.90
46652;DHT22;32377;52.182;5.398;2023-03-23T07:32:58;11.20;99.90
46652;DHT22;32377;52.182;5.398;2023-03-23T07:35:25;11.30;99.90
46652;DHT22;32377;52.182;5.398;2023-03-23T07:37:51;11.30;99.90
46652;DHT22;32377;52.182;5.398;2023-03-23T07:40:17;11.50;99.90
46652;DHT22;32377;52.182;5.398;2023-03-23T07:42:45;11.50;99.90
46652;DHT22;32377;52.182;5.398;2023-03-23T07:45:15;11.60;99.90
46652;DHT22;32377;52.182;5.398;2023-03-23T07:47:41;11.60;99.90
46652;DHT22;32377;52.182;5.398;2023-03-23T07:50:08;11.60;99.90
46652;DHT22;32377;52.182;5.398;2023-03-23T07:52:35;11.60;99.90
46652;DHT22;32377;52.182;5.398;2023-03-23T07:55:01;11.60;99.90
46652;DHT22;32377;52.182;5.398;2023-03-23T07:57:28;11.60;99.90
46652;DHT22;32377;52.182;5.398;2023-03-23T07:59:54;11.60;99.90
46652;DHT22;32377;52.182;5.398;2023-03-23T08:02:19;11.70;99.90
46652;DHT22;32377;52.182;5.398;2023-03-23T08:04:45;11.80;99.90
46652;DHT22;32377;52.182;5.398;2023-03-23T08:07:13;11.80;99.90
46652;DHT22;32377;52.182;5.398;2023-03-23T08:09:40;11.80;99.90
46652;DHT22;32377;52.182;5.398;2023-03-23T08:12:06;11.80;99.90
46652;DHT22;32377;52.182;5.398;2023-03-23T08:14:32;11.80;99.90
46652;DHT22;32377;52.182;5.398;2023-03-23T08:16:57;11.80;99.90
46652;DHT22;32377;52.182;5.398;2023-03-23T08:19:24;11.90;99.90
46652;DHT22;32377;52.182;5.398;2023-03-23T08:21:50;11.80;99.90
46652;DHT22;32377;52.182;5.398;2023-03-23T08:24:16;11.80;99.90
46652;DHT22;32377;52.182;5.398;2023-03-23T08:26:42;11.70;99.90
46652;DHT22;32377;52.182;5.398;2023-03-23T08:29:07;11.70;99.90
46652;DHT22;32377;52.182;5.398;2023-03-23T08:31:34;11.80;99.90
46652;DHT22;32377;52.182;5.398;2023-03-23T08:34:02;12.00;99.90
46652;DHT22;32377;52.182;5.398;2023-03-23T08:36:31;12.10;99.90
46652;DHT22;32377;52.182;5.398;2023-03-23T08:38:57;12.10;99.90
46652;DHT22;32377;52.182;5.398;2023-03-23T08:41:23;12.20;99.90
46652;DHT22;32377;52.182;5.398;2023-03-23T08:43:49;12.30;99.90
46652;DHT22;32377;52.182;5.398;2023-03-23T08:46:15;12.30;99.90
46652;DHT22;32377;52.182;5.398;2023-03-23T08:48:42;12.20;99.90
46652;DHT22;32377;52.182;5.398;2023-03-23T08:51:09;12.20;99.90
46652;DHT22;32377;52.182;5.398;2023-03-23T08:53:34;12.20;99.90
46652;DHT22;32377;52.182;5.398;2023-03-23T08:56:06;12.10;99.90
46652;DHT22;32377;52.182;5.398;2023-03-23T08:58:36;12.10;99.90
46652;DHT22;32377;52.182;5.398;2023-03-23T09:01:03;12.10;99.90
46652;DHT22;32377;52.182;5.398;2023-03-23T09:03:32;12.20;99.90
46652;DHT22;32377;52.182;5.398;2023-03-23T09:06:03;12.30;99.90
46652;DHT22;32377;52.182;5.398;2023-03-23T09:08:29;12.30;99.90
46652;DHT22;32377;52.182;5.398;2023-03-23T09:10:59;12.30;99.90
46652;DHT22;32377;52.182;5.398;2023-03-23T09:13:25;12.40;99.90
46652;DHT22;32377;52.182;5.398;2023-03-23T09:15:50;12.50;99.90
46652;DHT22;32377;52.182;5.398;2023-03-23T09:18:17;12.60;99.90
46652;DHT22;32377;52.182;5.398;2023-03-23T09:20:44;12.60;99.90
46652;DHT22;32377;52.182;5.398;2023-03-23T09:23:09;12.70;99.90
46652;DHT22;32377;52.182;5.398;2023-03-23T09:25:35;12.70;99.90
46652;DHT22;32377;52.182;5.398;2023-03-23T09:28:01;12.80;99.90
46652;DHT22;32377;52.182;5.398;2023-03-23T09:30:30;12.80;99.90
46652;DHT22;32377;52.182;5.398;2023-03-23T09:32:57;12.90;99.90
46652;DHT22;32377;52.182;5.398;2023-03-23T09:35:23;13.00;99.90
46652;DHT22;32377;52.182;5.398;2023-03-23T09:37:50;12.80;99.90
46652;DHT22;32377;52.182;5.398;2023-03-23T09:40:25;12.70;99.90
46652;DHT22;32377;52.182;5.398;2023-03-23T09:50:46;13.10;99.90
46652;DHT22;32377;52.182;5.398;2023-03-23T09:53:30;13.20;99.90
46652;DHT22;32377;52.182;5.398;2023-03-23T09:56:01;13.40;99.90
46652;DHT22;32377;52.182;5.398;2023-03-23T09:58:35;13.20;99.90
46652;DHT22;32377;52.182;5.398;2023-03-23T10:01:12;13.30;99.90
46652;DHT22;32377;52.182;5.398;2023-03-23T10:03:45;13.50;99.90
46652;DHT22;32377;52.182;5.398;2023-03-23T10:06:17;13.70;99.90
46652;DHT22;32377;52.182;5.398;2023-03-23T10:08:58;13.60;99.90
46652;DHT22;32377;52.182;5.398;2023-03-23T10:11:51;13.50;99.90
46652;DHT22;32377;52.182;5.398;2023-03-23T10:14:34;13.60;99.90
46652;DHT22;32377;52.182;5.398;2023-03-23T10:17:18;13.40;99.90
46652;DHT22;32377;52.182;5.398;2023-03-23T10:22:17;13.60;99.90
46652;DHT22;32377;52.182;5.398;2023-03-23T10:27:19;13.70;99.90
46652;DHT22;32377;52.182;5.398;2023-03-23T10:30:11;13.70;99.90
46652;DHT22;32377;52.182;5.398;2023-03-23T10:32:55;13.70;99.90
46652;DHT22;32377;52.182;5.398;2023-03-23T10:35:30;13.90;99.90
46652;DHT22;32377;52.182;5.398;2023-03-23T10:38:02;14.00;99.90
46652;DHT22;32377;52.182;5.398;2023-03-23T10:40:30;14.20;99.90
46652;DHT22;32377;52.182;5.398;2023-03-23T10:42:58;14.10;99.90
46652;DHT22;32377;52.182;5.398;2023-03-23T10:45:29;14.20;99.90
46652;DHT22;32377;52.182;5.398;2023-03-23T10:50:30;14.30;99.90
46652;DHT22;32377;52.182;5.398;2023-03-23T10:52:58;14.20;99.90
46652;DHT22;32377;52.182;5.398;2023-03-23T10:55:37;14.10;99.90
46652;DHT22;32377;52.182;5.398;2023-03-23T10:59:26;13.90;99.90
46652;DHT22;32377;52.182;5.398;2023-03-23T11:01:55;13.90;99.90
46652;DHT22;32377;52.182;5.398;2023-03-23T11:04:22;13.90;99.90
46652;DHT22;32377;52.182;5.398;2023-03-23T11:06:51;14.00;99.90
46652;DHT22;32377;52.182;5.398;2023-03-23T11:09:34;14.10;99.90
46652;DHT22;32377;52.182;5.398;2023-03-23T11:12:00;14.30;99.90
46652;DHT22;32377;52.182;5.398;2023-03-23T11:14:28;14.20;99.90
46652;DHT22;32377;52.182;5.398;2023-03-23T11:16:56;14.30;99.90
46652;DHT22;32377;52.182;5.398;2023-03-23T11:19:34;14.40;99.90
46652;DHT22;32377;52.182;5.398;2023-03-23T11:22:08;14.40;99.90
46652;DHT22;32377;52.182;5.398;2023-03-23T11:24:45;14.40;99.90
46652;DHT22;32377;52.182;5.398;2023-03-23T11:27:12;14.50;99.90
46652;DHT22;32377;52.182;5.398;2023-03-23T11:29:50;14.50;99.90
46652;DHT22;32377;52.182;5.398;2023-03-23T11:32:18;14.30;99.90
46652;DHT22;32377;52.182;5.398;2023-03-23T11:34:46;14.30;99.90
46652;DHT22;32377;52.182;5.398;2023-03-23T11:37:40;14.10;99.90
46652;DHT22;32377;52.182;5.398;2023-03-23T11:42:46;14.10;99.90
46652;DHT22;32377;52.182;5.398;2023-03-23T11:45:22;14.30;99.90
46652;DHT22;32377;52.182;5.398;2023-03-23T11:50:30;14.50;99.90
46652;DHT22;32377;52.182;5.398;2023-03-23T11:58:13;14.70;99.90
46652;DHT22;32377;52.182;5.398;2023-03-23T12:03:20;14.70;99.90
46652;DHT22;32377;52.182;5.398;2023-03-23T12:06:03;14.70;99.90
46652;DHT22;32377;52.182;5.398;2023-03-23T12:11:31;14.60;99.90
46652;DHT22;32377;52.182;5.398;2023-03-23T12:14:25;14.30;99.90
46652;DHT22;32377;52.182;5.398;2023-03-23T12:25:42;14.60;99.90
46652;DHT22;32377;52.182;5.398;2023-03-23T12:28:51;14.60;99.90
46652;DHT22;32377;52.182;5.398;2023-03-23T12:44:46;14.40;99.90
46652;DHT22;32377;52.182;5.398;2023-03-23T12:47:31;14.40;99.90
46652;DHT22;32377;52.182;5.398;2023-03-23T12:55:38;14.60;99.90
46652;DHT22;32377;52.182;5.398;2023-03-23T12:58:15;14.80;99.90
46652;DHT22;32377;52.182;5.398;2023-03-23T13:03:37;15.00;99.90
46652;DHT22;32377;52.182;5.398;2023-03-23T13:06:15;14.80;99.90
46652;DHT22;32377;52.182;5.398;2023-03-23T13:08:55;14.60;99.90
46652;DHT22;32377;52.182;5.398;2023-03-23T13:11:36;14.50;99.90
46652;DHT22;32377;52.182;5.398;2023-03-23T13:16:55;14.70;99.90
46652;DHT22;32377;52.182;5.398;2023-03-23T13:20:40;14.70;99.90
46652;DHT22;32377;52.182;5.398;2023-03-23T13:22:45;14.80;99.90
46652;DHT22;32377;52.182;5.398;2023-03-23T13:28:02;14.70;99.90
46652;DHT22;32377;52.182;5.398;2023-03-23T13:30:29;14.70;99.90
46652;DHT22;32377;52.182;5.398;2023-03-23T13:33:03;14.90;99.90
46652;DHT22;32377;52.182;5.398;2023-03-23T13:35:37;14.90;99.90
46652;DHT22;32377;52.182;5.398;2023-03-23T13:38:23;15.20;99.90
46652;DHT22;32377;52.182;5.398;2023-03-23T13:40:50;15.50;99.90
46652;DHT22;32377;52.182;5.398;2023-03-23T13:43:34;15.50;99.90
46652;DHT22;32377;52.182;5.398;2023-03-23T13:48:50;15.40;99.90
46652;DHT22;32377;52.182;5.398;2023-03-23T13:54:40;15.30;99.90
46652;DHT22;32377;52.182;5.398;2023-03-23T13:57:38;15.20;99.90
46652;DHT22;32377;52.182;5.398;2023-03-23T14:11:01;15.40;99.90
46652;DHT22;32377;52.182;5.398;2023-03-23T14:16:24;15.30;99.90
46652;DHT22;32377;52.182;5.398;2023-03-23T14:18:54;15.20;99.90
46652;DHT22;32377;52.182;5.398;2023-03-23T14:21:38;15.10;99.90
46652;DHT22;32377;52.182;5.398;2023-03-23T14:24:32;14.10;99.90
46652;DHT22;32377;52.182;5.398;2023-03-23T14:27:11;13.30;99.90
46652;DHT22;32377;52.182;5.398;2023-03-23T14:29:38;12.90;99.90
46652;DHT22;32377;52.182;5.398;2023-03-23T14:32:06;12.90;99.90
46652;DHT22;32377;52.182;5.398;2023-03-23T14:34:34;13.00;99.90
46652;DHT22;32377;52.182;5.398;2023-03-23T14:37:00;13.00;99.90
46652;DHT22;32377;52.182;5.398;2023-03-23T14:39:31;13.00;99.90
46652;DHT22;32377;52.182;5.398;2023-03-23T14:42:13;13.10;99.90
46652;DHT22;32377;52.182;5.398;2023-03-23T14:44:50;13.20;99.90
46652;DHT22;32377;52.182;5.398;2023-03-23T14:47:35;13.40;99.90
46652;DHT22;32377;52.182;5.398;2023-03-23T14:50:07;13.60;99.90
46652;DHT22;32377;52.182;5.398;2023-03-23T14:52:47;13.80;99.90
46652;DHT22;32377;52.182;5.398;2023-03-23T14:55:19;13.90;99.90
46652;DHT22;32377;52.182;5.398;2023-03-23T14:57:46;13.90;99.90
46652;DHT22;32377;52.182;5.398;2023-03-23T15:00:20;14.00;99.90
46652;DHT22;32377;52.182;5.398;2023-03-23T15:02:50;14.10;99.90
46652;DHT22;32377;52.182;5.398;2023-03-23T15:05:33;14.10;99.90
46652;DHT22;32377;52.182;5.398;2023-03-23T15:08:14;14.20;99.90
46652;DHT22;32377;52.182;5.398;2023-03-23T15:10:41;14.30;99.90
46652;DHT22;32377;52.182;5.398;2023-03-23T15:13:11;14.30;99.90
46652;DHT22;32377;52.182;5.398;2023-03-23T15:15:38;14.40;99.90
46652;DHT22;32377;52.182;5.398;2023-03-23T15:18:03;14.40;99.90
46652;DHT22;32377;52.182;5.398;2023-03-23T15:20:46;14.50;99.90
46652;DHT22;32377;52.182;5.398;2023-03-23T15:23:17;14.40;99.90
46652;DHT22;32377;52.182;5.398;2023-03-23T15:25:47;14.50;99.90
46652;DHT22;32377;52.182;5.398;2023-03-23T15:28:22;14.60;99.90
46652;DHT22;32377;52.182;5.398;2023-03-23T15:30:54;14.60;99.90
46652;DHT22;32377;52.182;5.398;2023-03-23T15:33:21;14.60;99.90
46652;DHT22;32377;52.182;5.398;2023-03-23T15:35:53;14.60;99.90
46652;DHT22;32377;52.182;5.398;2023-03-23T15:38:30;14.50;99.90
46652;DHT22;32377;52.182;5.398;2023-03-23T15:40:59;14.60;99.90
46652;DHT22;32377;52.182;5.398;2023-03-23T15:43:32;14.60;99.90
46652;DHT22;32377;52.182;5.398;2023-03-23T15:48:33;14.50;99.90
46652;DHT22;32377;52.182;5.398;2023-03-23T15:51:10;14.60;99.90
46652;DHT22;32377;52.182;5.398;2023-03-23T15:53:37;14.70;99.90
46652;DHT22;32377;52.182;5.398;2023-03-23T15:56:08;14.70;99.90
46652;DHT22;32377;52.182;5.398;2023-03-23T15:58:35;14.70;99.90
46652;DHT22;32377;52.182;5.398;2023-03-23T16:01:10;14.70;99.90
46652;DHT22;32377;52.182;5.398;2023-03-23T16:03:41;14.70;99.90
46652;DHT22;32377;52.182;5.398;2023-03-23T16:06:11;14.70;99.90
46652;DHT22;32377;52.182;5.398;2023-03-23T16:08:37;14.70;99.90
46652;DHT22;32377;52.182;5.398;2023-03-23T16:11:08;14.80;99.90
46652;DHT22;32377;52.182;5.398;2023-03-23T16:13:33;14.80;99.90
46652;DHT22;32377;52.182;5.398;2023-03-23T16:15:59;14.80;99.90
46652;DHT22;32377;52.182;5.398;2023-03-23T16:18:25;14.80;99.90
46652;DHT22;32377;52.182;5.398;2023-03-23T16:20:50;14.90;99.90
46652;DHT22;32377;52.182;5.398;2023-03-23T16:23:16;14.80;99.90
46652;DHT22;32377;52.182;5.398;2023-03-23T16:25:42;14.70;99.90
46652;DHT22;32377;52.182;5.398;2023-03-23T16:28:11;14.60;99.90
46652;DHT22;32377;52.182;5.398;2023-03-23T16:30:37;14.50;99.90
46652;DHT22;32377;52.182;5.398;2023-03-23T16:33:03;14.50;99.90
46652;DHT22;32377;52.182;5.398;2023-03-23T16:35:28;14.50;99.90
46652;DHT22;32377;52.182;5.398;2023-03-23T16:37:56;14.50;99.90
46652;DHT22;32377;52.182;5.398;2023-03-23T16:40:22;14.50;99.90
46652;DHT22;32377;52.182;5.398;2023-03-23T16:42:47;14.50;99.90
46652;DHT22;32377;52.182;5.398;2023-03-23T16:45:14;14.50;99.90
46652;DHT22;32377;52.182;5.398;2023-03-23T16:47:40;14.50;99.90
46652;DHT22;32377;52.182;5.398;2023-03-23T16:50:09;14.50;99.90
46652;DHT22;32377;52.182;5.398;2023-03-23T16:52:39;14.50;99.90
46652;DHT22;32377;52.182;5.398;2023-03-23T16:55:06;14.50;99.90
46652;DHT22;32377;52.182;5.398;2023-03-23T16:59:14;14.40;99.90
46652;DHT22;32377;52.182;5.398;2023-03-23T17:01:40;14.40;99.90
46652;DHT22;32377;52.182;5.398;2023-03-23T17:04:07;14.40;99.90
46652;DHT22;32377;52.182;5.398;2023-03-23T17:06:32;14.40;99.90
46652;DHT22;32377;52.182;5.398;2023-03-23T17:08:58;14.30;99.90
46652;DHT22;32377;52.182;5.398;2023-03-23T17:11:24;14.30;99.90
46652;DHT22;32377;52.182;5.398;2023-03-23T17:13:49;14.30;99.90
46652;DHT22;32377;52.182;5.398;2023-03-23T17:16:15;14.30;99.90
46652;DHT22;32377;52.182;5.398;2023-03-23T17:18:40;14.30;99.90
46652;DHT22;32377;52.182;5.398;2023-03-23T17:21:06;14.20;99.90
46652;DHT22;32377;52.182;5.398;2023-03-23T17:23:32;14.20;99.90
46652;DHT22;32377;52.182;5.398;2023-03-23T17:25:57;14.20;99.90
46652;DHT22;32377;52.182;5.398;2023-03-23T17:28:23;14.20;99.90
46652;DHT22;32377;52.182;5.398;2023-03-23T17:30:50;14.20;99.90
46652;DHT22;32377;52.182;5.398;2023-03-23T17:33:16;14.30;99.90
46652;DHT22;32377;52.182;5.398;2023-03-23T17:35:43;14.30;99.90
46652;DHT22;32377;52.182;5.398;2023-03-23T17:38:09;14.30;99.90
46652;DHT22;32377;52.182;5.398;2023-03-23T17:40:35;14.30;99.90
46652;DHT22;32377;52.182;5.398;2023-03-23T17:43:01;14.30;99.90